KG-0018 weather

Kyzyl-Kiya Airport
Kyzyl-Kiya, Batken Region, Kyrgyzstan

Public forecast

Using degrees Celsius for public forecast. Weather courtesy of forecast.io.

METAR (pilot weather report)

Closest report is Osh Airport, 39.7 nm (73.4 km) ENE. Retrieved 2018/12/14 16:00 UTC (10 minutes ago):

UCFO 141600Z 18003MPS 1300 1200NE R12/P1500N FU NSC 01/M03 Q1026 R12/CLRD70 TEMPO 0400 FZFG FU VV002

TAF (pilot weather forecast)

Closest forecast is Osh Airport, 39.7 nm (73.4 km) ENE. Retrieved 2018/12/14 12:00 UTC (4 hours ago):

TAF UCFO 141040Z 1412/1512 12005MPS 1200 BR NSC TEMPO 1412/1418 20005MPS 0400 FG FU SCT002 TEMPO 1418/1424 2000 BR FU SCT050 BECMG 1503/1505 32005MPS SCT050CB BKN100